createdAt,value
2019-05-25T00:00:28.117Z,12.33
2019-05-25T00:02:59.824Z,12.33
2019-05-25T00:05:30.817Z,12.34
2019-05-25T00:08:02.030Z,12.29
2019-05-25T00:10:33.588Z,12.22
2019-05-25T00:13:04.910Z,12.21
2019-05-25T00:15:39.379Z,12.17
2019-05-25T00:18:11.263Z,12.18
2019-05-25T00:20:42.389Z,12.12
2019-05-25T00:23:13.585Z,12.09
2019-05-25T00:25:44.556Z,12.06
2019-05-25T00:28:15.855Z,12.06
2019-05-25T00:30:47.503Z,12.05
2019-05-25T00:33:18.939Z,12.01
2019-05-25T00:35:50.053Z,12.01
2019-05-25T00:38:21.316Z,12.05
2019-05-25T00:40:52.982Z,11.99
2019-05-25T00:43:26.109Z,12.00
2019-05-25T00:45:57.262Z,11.98
2019-05-25T00:48:28.260Z,12.00
2019-05-25T00:50:59.897Z,11.93
2019-05-25T00:53:31.421Z,11.95
2019-05-25T00:56:02.310Z,11.93
2019-05-25T00:58:33.804Z,11.95
2019-05-25T01:01:05.593Z,11.94
2019-05-25T01:03:37.139Z,11.92
2019-05-25T01:06:08.504Z,11.84
2019-05-25T01:08:39.980Z,11.84
2019-05-25T01:11:11.660Z,11.81
2019-05-25T01:13:42.819Z,11.75
2019-05-25T01:16:14.345Z,11.71
2019-05-25T01:18:46.972Z,11.67
2019-05-25T01:21:17.891Z,11.66
2019-05-25T01:23:49.224Z,11.60
2019-05-25T01:26:21.740Z,11.59
2019-05-25T01:28:54.504Z,11.50
2019-05-25T01:31:25.736Z,11.50
2019-05-25T01:33:58.296Z,11.55
2019-05-25T01:36:29.417Z,11.57
2019-05-25T01:39:01.060Z,11.51
2019-05-25T01:41:35.435Z,11.43
2019-05-25T01:44:06.666Z,11.41
2019-05-25T01:46:38.135Z,11.37
2019-05-25T01:49:09.654Z,11.36
2019-05-25T01:51:40.897Z,11.35
2019-05-25T01:54:13.151Z,11.40
2019-05-25T01:56:45.177Z,11.43
2019-05-25T01:59:16.056Z,11.40
2019-05-25T02:01:47.418Z,11.36
2019-05-25T02:04:18.829Z,11.36
2019-05-25T02:06:50.099Z,11.39
2019-05-25T02:09:21.140Z,11.37
2019-05-25T02:11:52.493Z,11.36
2019-05-25T02:14:23.903Z,11.33
2019-05-25T02:16:55.419Z,11.29
2019-05-25T02:19:28.437Z,11.29
2019-05-25T02:21:59.792Z,11.27
2019-05-25T02:24:31.996Z,11.27
2019-05-25T02:27:03.541Z,11.26
2019-05-25T02:29:34.902Z,11.33
2019-05-25T02:32:10.373Z,11.36
2019-05-25T02:34:42.144Z,11.25
2019-05-25T02:37:13.267Z,11.22
2019-05-25T02:39:44.585Z,11.20
2019-05-25T02:42:16.155Z,11.18
2019-05-25T02:44:47.371Z,11.16
2019-05-25T02:47:18.457Z,11.13
2019-05-25T02:49:49.429Z,11.05
2019-05-25T02:52:20.819Z,11.06
2019-05-25T02:54:52.034Z,11.06
2019-05-25T02:57:23.657Z,11.03
2019-05-25T02:59:54.737Z,11.03
2019-05-25T03:02:26.341Z,11.00
2019-05-25T03:04:57.701Z,11.04
2019-05-25T03:07:30.393Z,11.08
2019-05-25T03:10:02.422Z,11.12
2019-05-25T03:12:34.341Z,11.20
2019-05-25T03:15:07.698Z,11.16
2019-05-25T03:17:39.634Z,11.19
2019-05-25T03:20:29.347Z,11.21
2019-05-25T04:22:04.698Z,12.14
2019-05-25T04:24:36.059Z,12.29
2019-05-25T04:27:07.613Z,12.43
2019-05-25T04:29:38.908Z,12.54
2019-05-25T04:32:10.448Z,12.66
2019-05-25T04:34:41.933Z,12.76
2019-05-25T04:37:13.498Z,12.83
2019-05-25T04:39:44.284Z,12.92
2019-05-25T04:42:15.785Z,13.04
2019-05-25T04:44:46.667Z,13.12
2019-05-25T04:47:26.678Z,13.19
2019-05-25T04:49:51.313Z,13.28
2019-05-25T04:52:22.971Z,13.32
2019-05-25T04:54:54.137Z,13.36
2019-05-25T04:57:25.886Z,13.48
2019-05-25T04:59:57.072Z,13.59
2019-05-25T05:02:28.575Z,13.71
2019-05-25T05:05:00.331Z,13.81
2019-05-25T05:07:31.744Z,13.91
2019-05-25T05:10:04.964Z,13.98
2019-05-25T05:12:36.922Z,14.02
2019-05-25T05:15:09.773Z,14.03
2019-05-25T05:17:41.637Z,14.13
2019-05-25T05:20:13.472Z,14.28
2019-05-25T05:22:46.650Z,14.34
2019-05-25T05:25:18.344Z,14.32
2019-05-25T05:27:51.484Z,14.37
2019-05-25T05:30:26.257Z,14.42
2019-05-25T05:32:57.681Z,14.49
2019-05-25T05:35:30.487Z,14.55
2019-05-25T05:38:06.321Z,14.58
2019-05-25T05:40:38.932Z,14.58
2019-05-25T05:43:12.712Z,14.65
2019-05-25T05:45:47.664Z,14.64
2019-05-25T05:48:21.750Z,14.69
2019-05-25T05:50:54.645Z,14.79
2019-05-25T05:53:27.958Z,14.81
2019-05-25T05:56:01.692Z,14.88
2019-05-25T05:58:34.331Z,14.88
2019-05-25T06:01:06.675Z,14.78
2019-05-25T06:03:38.010Z,14.75
2019-05-25T06:06:09.941Z,14.87
2019-05-25T06:08:41.662Z,14.92
2019-05-25T06:11:13.859Z,14.89
2019-05-25T06:13:45.819Z,15.04
2019-05-25T06:16:20.122Z,15.07
2019-05-25T06:18:52.354Z,15.11
2019-05-25T06:21:24.759Z,15.09
2019-05-25T06:23:56.627Z,15.14
2019-05-25T06:26:29.154Z,15.24
2019-05-25T06:29:01.748Z,15.28
2019-05-25T06:31:36.785Z,15.30
2019-05-25T06:34:08.888Z,15.29
2019-05-25T06:36:40.587Z,15.39
2019-05-25T06:39:12.550Z,15.38
2019-05-25T06:41:43.773Z,15.40
2019-05-25T06:44:16.435Z,15.49
2019-05-25T06:46:47.946Z,15.68
2019-05-25T06:49:19.992Z,15.60
2019-05-25T06:51:51.712Z,15.78
2019-05-25T06:54:23.949Z,15.96
2019-05-25T06:56:55.205Z,15.92
2019-05-25T06:59:26.688Z,15.97
2019-05-25T07:01:58.649Z,16.15
2019-05-25T07:04:30.348Z,16.20
2019-05-25T07:07:01.577Z,16.19
2019-05-25T07:09:33.641Z,16.28
2019-05-25T07:12:04.542Z,16.35
2019-05-25T07:14:35.729Z,16.51
2019-05-25T07:17:07.416Z,16.65
2019-05-25T07:19:39.267Z,16.61
2019-05-25T07:22:12.546Z,16.69
2019-05-25T07:24:44.446Z,16.78
2019-05-25T07:27:18.030Z,16.97
2019-05-25T07:29:49.469Z,17.04
2019-05-25T07:32:47.912Z,17.08
2019-05-25T07:35:22.367Z,17.15
2019-05-25T07:37:55.006Z,17.22
2019-05-25T07:40:29.332Z,17.24
2019-05-25T07:43:01.120Z,17.20
2019-05-25T07:45:32.544Z,17.35
2019-05-25T07:48:09.357Z,17.15
2019-05-25T07:50:40.953Z,17.16
2019-05-25T07:53:15.221Z,17.31
2019-05-25T07:55:50.096Z,17.27
2019-05-25T07:58:32.701Z,17.27
2019-05-25T08:01:05.182Z,17.41
2019-05-25T08:03:39.782Z,17.46
2019-05-25T08:06:19.587Z,17.34
2019-05-25T08:08:54.711Z,17.31
2019-05-25T08:11:31.212Z,17.44
2019-05-25T08:14:04.228Z,17.64
2019-05-25T08:16:36.029Z,17.75
2019-05-25T08:19:09.308Z,17.79
2019-05-25T08:21:41.189Z,17.85
2019-05-25T08:24:19.974Z,17.86
2019-05-25T08:27:03.188Z,17.82
2019-05-25T08:29:39.660Z,17.88
2019-05-25T08:32:21.967Z,18.17
2019-05-25T08:34:59.792Z,18.33
2019-05-25T08:37:37.511Z,18.27
2019-05-25T08:40:37.774Z,18.14
2019-05-25T08:43:16.622Z,18.23
2019-05-25T08:45:48.273Z,18.22
2019-05-25T08:48:20.467Z,18.23
2019-05-25T08:50:52.512Z,17.97
2019-05-25T08:53:39.968Z,17.98
2019-05-25T08:55:59.736Z,18.11
2019-05-25T08:58:48.138Z,18.39
2019-05-25T09:01:11.580Z,18.28
2019-05-25T09:03:43.881Z,18.42
2019-05-25T09:06:16.397Z,18.44
2019-05-25T09:08:49.384Z,18.66
2019-05-25T09:11:22.068Z,18.66
2019-05-25T09:14:02.977Z,18.60
2019-05-25T09:16:41.314Z,18.44
2019-05-25T09:19:13.179Z,18.41
2019-05-25T09:22:01.006Z,18.10
2019-05-25T09:24:48.383Z,18.31
2019-05-25T09:27:27.529Z,18.85
2019-05-25T09:29:59.861Z,19.10
2019-05-25T09:32:31.741Z,19.29
2019-05-25T09:35:05.359Z,19.44
2019-05-25T09:37:37.614Z,19.39
2019-05-25T09:40:10.161Z,19.54
2019-05-25T09:42:42.833Z,19.54
2019-05-25T09:45:17.422Z,19.40
2019-05-25T09:47:49.977Z,19.32
2019-05-25T09:50:22.782Z,19.38
2019-05-25T09:52:55.657Z,19.25
2019-05-25T09:55:29.217Z,19.20
2019-05-25T09:58:00.849Z,19.03
2019-05-25T10:00:34.673Z,18.95
2019-05-25T10:03:07.340Z,19.07
2019-05-25T10:05:39.539Z,19.28
2019-05-25T10:08:13.177Z,19.37
2019-05-25T10:10:47.667Z,19.61
2019-05-25T10:13:20.142Z,19.82
2019-05-25T10:15:52.315Z,20.04
2019-05-25T10:18:36.053Z,20.07
2019-05-25T10:21:15.024Z,20.05
2019-05-25T10:23:51.476Z,20.20
2019-05-25T10:26:23.812Z,20.37
2019-05-25T10:28:58.526Z,20.37
2019-05-25T10:31:30.909Z,19.93
2019-05-25T10:34:05.958Z,20.09
2019-05-25T10:36:42.719Z,20.06
2019-05-25T10:39:15.368Z,20.11
2019-05-25T10:41:48.107Z,20.03
2019-05-25T10:44:23.171Z,19.86
2019-05-25T10:46:56.058Z,19.77
2019-05-25T10:49:29.373Z,19.57
2019-05-25T10:52:01.522Z,19.74
2019-05-25T10:54:32.647Z,20.15
2019-05-25T10:57:04.673Z,19.79
2019-05-25T10:59:51.659Z,19.61
2019-05-25T11:02:26.272Z,20.07
2019-05-25T11:07:56.234Z,20.59
2019-05-25T11:10:39.074Z,20.36
2019-05-25T11:13:17.411Z,20.50
2019-05-25T11:15:50.539Z,20.30
2019-05-25T11:18:22.735Z,20.55
2019-05-25T11:20:54.075Z,20.47
2019-05-25T11:23:25.395Z,20.38
2019-05-25T11:25:56.600Z,20.27
2019-05-25T11:28:27.654Z,20.33
2019-05-25T11:30:58.444Z,20.11
2019-05-25T11:33:29.418Z,20.08
2019-05-25T11:36:01.676Z,20.08
2019-05-25T11:38:32.693Z,20.44
2019-05-25T11:41:03.721Z,20.21
2019-05-25T11:43:35.582Z,20.10
2019-05-25T11:46:07.673Z,20.06
2019-05-25T11:48:39.867Z,19.88
2019-05-25T11:51:11.528Z,19.81
2019-05-25T11:53:42.713Z,19.81
2019-05-25T11:56:13.650Z,19.89
2019-05-25T11:58:47.934Z,19.88
2019-05-25T12:01:19.027Z,19.96
2019-05-25T12:03:50.457Z,19.99
2019-05-25T12:06:21.323Z,20.12
2019-05-25T12:08:52.433Z,20.33
2019-05-25T12:11:23.301Z,20.51
2019-05-25T12:13:54.332Z,20.44
2019-05-25T12:16:25.112Z,20.40
2019-05-25T12:18:56.315Z,20.43
2019-05-25T12:21:27.701Z,20.32
2019-05-25T12:24:02.695Z,20.18
2019-05-25T12:27:02.462Z,20.14
2019-05-25T12:29:39.304Z,20.14
2019-05-25T12:32:10.419Z,20.18
2019-05-25T12:34:41.727Z,20.18
2019-05-25T12:37:12.482Z,20.00
2019-05-25T12:39:44.811Z,20.24
2019-05-25T12:42:15.777Z,20.19
2019-05-25T12:44:46.928Z,20.33
2019-05-25T12:47:18.254Z,20.49
2019-05-25T12:49:51.013Z,20.51
2019-05-25T12:52:22.253Z,20.67
2019-05-25T12:54:53.401Z,20.88
2019-05-25T12:57:24.604Z,20.60
2019-05-25T12:59:55.553Z,20.34
2019-05-25T13:02:26.389Z,20.12
2019-05-25T13:04:57.759Z,19.96
2019-05-25T13:07:29.050Z,20.09
2019-05-25T13:10:00.232Z,20.33
2019-05-25T13:12:31.131Z,20.45
2019-05-25T13:15:02.390Z,20.26
2019-05-25T13:17:33.499Z,20.14
2019-05-25T13:20:06.519Z,19.96
2019-05-25T13:22:37.634Z,20.02
2019-05-25T13:25:08.590Z,19.94
2019-05-25T13:27:41.227Z,20.10
2019-05-25T13:30:17.522Z,20.31
2019-05-25T13:32:48.933Z,20.40
2019-05-25T13:35:19.827Z,20.42
2019-05-25T13:37:53.344Z,20.47
2019-05-25T13:40:24.123Z,20.64
2019-05-25T13:42:55.300Z,20.73
2019-05-25T13:45:26.260Z,20.58
2019-05-25T13:47:57.314Z,20.62
2019-05-25T13:50:28.235Z,20.80
2019-05-25T13:52:59.513Z,20.86
2019-05-25T13:55:30.264Z,20.78
2019-05-25T13:58:01.754Z,20.71
2019-05-25T14:00:32.914Z,20.59
2019-05-25T14:03:04.243Z,20.70
2019-05-25T14:05:38.745Z,20.49
2019-05-25T14:08:09.618Z,20.53
2019-05-25T14:10:40.753Z,20.76
2019-05-25T14:13:11.834Z,21.04
2019-05-25T14:15:42.888Z,20.65
2019-05-25T14:18:13.998Z,20.86
2019-05-25T14:20:47.860Z,20.96
2019-05-25T14:23:19.592Z,20.90
2019-05-25T14:25:52.203Z,20.99
2019-05-25T14:28:24.972Z,20.94
2019-05-25T14:30:56.318Z,21.06
2019-05-25T14:33:27.216Z,20.95
2019-05-25T14:35:58.064Z,20.84
2019-05-25T14:38:38.869Z,20.40
2019-05-25T14:41:10.123Z,20.28
2019-05-25T14:43:43.452Z,20.26
2019-05-25T14:46:27.362Z,20.35
2019-05-25T14:48:47.702Z,20.32
2019-05-25T14:51:19.009Z,20.26
2019-05-25T14:53:49.893Z,20.29
2019-05-25T14:56:22.019Z,20.29
2019-05-25T14:58:53.088Z,20.22
2019-05-25T15:01:24.880Z,20.24
2019-05-25T15:03:58.308Z,20.11
2019-05-25T15:06:34.545Z,19.80
2019-05-25T15:09:07.916Z,19.78
2019-05-25T15:11:39.356Z,19.82
2019-05-25T15:14:10.326Z,19.69
2019-05-25T15:16:41.107Z,19.59
2019-05-25T15:19:19.442Z,19.57
2019-05-25T15:21:50.341Z,19.58
2019-05-25T15:24:21.696Z,19.61
2019-05-25T15:26:52.965Z,19.86
2019-05-25T15:29:24.004Z,19.61
2019-05-25T15:31:55.360Z,19.43
2019-05-25T15:34:26.313Z,19.28
2019-05-25T15:36:58.751Z,19.21
2019-05-25T15:39:37.220Z,19.23
2019-05-25T15:42:08.508Z,19.09
2019-05-25T15:44:42.052Z,19.14
2019-05-25T15:47:13.608Z,19.15
2019-05-25T15:49:59.875Z,19.09
2019-05-25T15:52:40.203Z,18.95
2019-05-25T15:55:14.474Z,18.95
2019-05-25T15:58:06.632Z,18.86
2019-05-25T16:01:07.935Z,18.91
2019-05-25T16:03:57.195Z,19.01
2019-05-25T16:06:48.827Z,18.96
2019-05-25T16:09:24.466Z,18.90
2019-05-25T16:11:55.914Z,18.76
2019-05-25T16:14:29.214Z,18.56
2019-05-25T16:17:00.399Z,18.44
2019-05-25T16:19:31.280Z,18.38
2019-05-25T16:22:35.691Z,18.23
2019-05-25T16:25:38.517Z,18.24
2019-05-25T16:28:37.588Z,18.22
2019-05-25T16:31:52.896Z,18.29
2019-05-25T16:34:38.278Z,18.06
2019-05-25T16:37:09.265Z,17.99
2019-05-25T16:39:40.838Z,17.97
2019-05-25T16:42:14.575Z,17.92
2019-05-25T16:44:49.360Z,17.84
2019-05-25T16:47:37.651Z,17.79
2019-05-25T16:50:16.871Z,17.59
2019-05-25T16:52:52.191Z,17.56
2019-05-25T16:55:22.507Z,17.59
2019-05-25T16:57:59.876Z,17.50
2019-05-25T17:00:30.942Z,17.56
2019-05-25T17:03:04.712Z,17.57
2019-05-25T17:05:55.546Z,17.48
2019-05-25T17:08:44.471Z,17.43
2019-05-25T17:11:22.871Z,17.43
2019-05-25T17:14:10.044Z,17.48
2019-05-25T17:17:22.272Z,17.57
2019-05-25T17:20:42.856Z,17.69
2019-05-25T17:23:34.197Z,17.65
2019-05-25T17:26:16.793Z,17.70
2019-05-25T17:29:05.273Z,17.61
2019-05-25T17:31:44.515Z,17.57
2019-05-25T17:35:09.281Z,17.57
2019-05-25T17:37:53.710Z,17.56
2019-05-25T17:40:24.687Z,17.49
2019-05-25T17:42:55.525Z,17.50
2019-05-25T17:45:26.750Z,17.41
2019-05-25T17:47:57.612Z,17.21
2019-05-25T17:50:33.453Z,17.18
2019-05-25T17:53:07.369Z,17.16
2019-05-25T17:59:46.872Z,17.01
2019-05-25T18:02:24.656Z,16.85
2019-05-25T18:05:00.455Z,16.75
2019-05-25T18:07:31.640Z,16.87
2019-05-25T18:10:05.665Z,16.83
2019-05-25T18:13:02.442Z,16.66
2019-05-25T18:15:53.664Z,16.63
2019-05-25T18:18:24.910Z,16.61
2019-05-25T18:21:12.242Z,16.60
2019-05-25T18:24:16.648Z,16.57
2019-05-25T18:27:04.980Z,16.52
2019-05-25T18:29:48.712Z,16.41
2019-05-25T18:32:31.001Z,16.36
2019-05-25T18:35:10.463Z,16.30
2019-05-25T18:37:41.663Z,16.24
2019-05-25T18:40:13.216Z,16.21
2019-05-25T18:42:45.197Z,16.15
2019-05-25T18:45:23.002Z,16.08
2019-05-25T18:48:14.436Z,15.89
2019-05-25T18:50:52.525Z,15.92
2019-05-25T18:53:31.118Z,15.78
2019-05-25T18:56:06.574Z,15.70
2019-05-25T18:58:37.845Z,15.68
2019-05-25T19:01:08.762Z,15.60
2019-05-25T19:03:40.572Z,15.51
2019-05-25T19:06:13.122Z,15.44
2019-05-25T19:09:01.429Z,15.45
2019-05-25T19:11:46.640Z,15.41
2019-05-25T19:14:19.182Z,15.35
2019-05-25T19:16:50.051Z,15.36
2019-05-25T19:19:24.144Z,15.32
2019-05-25T19:22:04.549Z,15.24
2019-05-25T19:24:48.323Z,15.21
2019-05-25T19:27:42.896Z,15.18
2019-05-25T19:30:37.805Z,15.03
2019-05-25T19:33:09.003Z,15.05
2019-05-25T19:36:18.578Z,14.98
2019-05-25T19:38:58.369Z,15.01
2019-05-25T19:41:30.393Z,14.99
2019-05-25T19:44:01.560Z,14.95
2019-05-25T19:46:47.369Z,14.95
2019-05-25T19:49:20.072Z,14.91
2019-05-25T19:51:52.872Z,14.77
2019-05-25T19:54:25.099Z,14.66
2019-05-25T19:56:58.473Z,14.65
2019-05-25T19:59:59.036Z,14.53
2019-05-25T20:02:57.640Z,14.52
2019-05-25T20:05:38.374Z,14.44
2019-05-25T20:08:14.101Z,14.34
2019-05-25T20:10:44.939Z,14.26
2019-05-25T20:13:21.717Z,14.17
2019-05-25T20:15:52.413Z,14.10
2019-05-25T20:18:27.462Z,14.03
2019-05-25T20:21:01.621Z,13.93
2019-05-25T20:23:33.400Z,13.89
2019-05-25T20:26:04.981Z,13.84
2019-05-25T20:28:35.045Z,13.82
2019-05-25T20:31:16.862Z,13.78
2019-05-25T20:34:06.756Z,13.91
2019-05-25T20:36:45.170Z,13.84
2019-05-25T20:39:20.019Z,13.77
2019-05-25T20:41:53.125Z,13.71
2019-05-25T20:44:30.676Z,13.53
2019-05-25T20:47:34.433Z,13.46
2019-05-25T20:50:21.758Z,13.38
2019-05-25T20:52:56.110Z,13.17
2019-05-25T20:55:33.999Z,13.00
2019-05-25T20:58:06.495Z,12.88
2019-05-25T21:01:04.205Z,12.82
2019-05-25T21:07:05.867Z,12.80
2019-05-25T21:09:42.532Z,12.76
2019-05-25T21:12:26.771Z,12.74
2019-05-25T21:15:01.775Z,12.68
2019-05-25T21:17:34.185Z,12.61
2019-05-25T21:20:12.067Z,12.58
2019-05-25T21:22:45.690Z,12.48
2019-05-25T21:25:27.028Z,12.35
2019-05-25T21:28:19.541Z,12.35
2019-05-25T21:30:53.304Z,12.31
2019-05-25T21:33:27.608Z,12.33
2019-05-25T21:36:09.698Z,12.31
2019-05-25T21:38:49.705Z,12.32
2019-05-25T21:41:23.217Z,12.23
2019-05-25T21:43:57.407Z,12.15
2019-05-25T21:46:29.445Z,12.06
2019-05-25T21:49:01.861Z,12.03
2019-05-25T21:51:34.226Z,12.03
2019-05-25T21:54:05.364Z,12.01
2019-05-25T21:56:41.754Z,12.04
2019-05-25T21:59:13.471Z,12.02
2019-05-25T22:01:45.066Z,11.94
2019-05-25T22:04:17.332Z,11.85
2019-05-25T22:06:48.730Z,11.86
2019-05-25T22:09:29.557Z,11.88
2019-05-25T22:12:01.583Z,11.72
2019-05-25T22:14:34.615Z,11.73
2019-05-25T22:17:06.395Z,11.67
2019-05-25T22:19:38.436Z,11.71
2019-05-25T22:22:10.490Z,11.75
2019-05-25T22:24:42.382Z,11.75
2019-05-25T22:27:14.629Z,11.76
2019-05-25T22:29:47.137Z,11.70
2019-05-25T22:32:19.136Z,11.74
2019-05-25T22:34:51.203Z,11.66
2019-05-25T22:37:23.459Z,11.62
2019-05-25T22:39:55.378Z,11.57
2019-05-25T22:42:27.468Z,11.51
2019-05-25T22:44:59.118Z,11.51
2019-05-25T22:47:31.312Z,11.45
2019-05-25T22:50:03.772Z,11.35
2019-05-25T22:52:38.177Z,11.35
2019-05-25T22:55:10.173Z,11.26
2019-05-25T22:57:41.790Z,11.20
2019-05-25T23:00:13.759Z,11.19
2019-05-25T23:02:45.536Z,11.23
2019-05-25T23:05:18.711Z,11.20
2019-05-25T23:07:50.199Z,11.17
2019-05-25T23:10:21.608Z,11.12
2019-05-25T23:12:56.991Z,11.05
2019-05-25T23:15:28.847Z,11.07
2019-05-25T23:18:00.169Z,11.12
2019-05-25T23:20:36.267Z,11.06
2019-05-25T23:23:05.997Z,11.02
2019-05-25T23:25:37.533Z,10.99
2019-05-25T23:28:10.627Z,11.00
2019-05-25T23:30:42.607Z,10.93
2019-05-25T23:33:14.206Z,10.92
2019-05-25T23:35:45.401Z,10.92
2019-05-25T23:38:18.833Z,10.92
2019-05-25T23:40:50.588Z,10.92
2019-05-25T23:43:22.706Z,10.81
2019-05-25T23:45:55.038Z,10.82
2019-05-25T23:48:28.145Z,10.76
2019-05-25T23:51:00.869Z,10.77
2019-05-25T23:53:32.235Z,10.80
2019-05-25T23:56:04.148Z,10.76
2019-05-25T23:58:35.474Z,10.84
